Newport, RI (02841)

4:03 AM EST on March 05, 2015 (GMT -0500)
NOS_NWLON Newport, RI NWLON | Change Station
CLOSE
Current Station
Personal Weather Station
Location: Newport, RI
Elevation: 0 ft
Nearby Weather Stations
Active Advisory: Winter Weather Advisory

Elev 0 ft 41.51 °N, 71.33 °W | Updated 27 minutes ago

Light Snow
Light Snow
--
Feels Like --
N
7.0
Wind Variable Wind from North
Gusts 9.0 mph

Today
High -- | Low -- °F
--% Chance of Precip.
Yesterday
High -- | Low -- °F
Precip. -- in
6:13 AM 5:40 PM
Full, 100% visible
Pressure 29.90 in
Visibility 7.0 miles
Clouds Scattered Clouds 1400 ft
Mostly Cloudy 2200 ft
Overcast 4500 ft
Dew Point Not available.
Humidity Not available.
Rainfall in
Snow Depth Not available.
UV 0 out of 12
Pollen .50 out of 12
Air Quality Not available.
Flu Activity Not available.
METAR KUUU 050853Z AUTO 32008KT 7SM -SN SCT014 BKN022 OVC045 01/00 A2990 RMK AO2 RAE50UPB33E35SNB50 PRESRR SLP125 P0002 60005 T00110000 53015

More Conditions Fewer Conditions

Pressure 29.90 in
Visibility 7.0 miles
Clouds Scattered Clouds 1400 ft
Mostly Cloudy 2200 ft
Overcast 4500 ft
Dew Point Not available.
Humidity Not available.
Rainfall in
Snow Depth Not available.
UV 0 out of 12
Pollen .50 out of 12
Air Quality Not available.
Flu Activity Not available.
METAR KUUU 050853Z AUTO 32008KT 7SM -SN SCT014 BKN022 OVC045 01/00 A2990 RMK AO2 RAE50UPB33E35SNB50 PRESRR SLP125 P0002 60005 T00110000 53015

More Conditions Fewer Conditions

10-Day Weather Forecast

Almanac

Astronomy

Mar. 05, 2015 Rise Set
Actual Time
Civil Twilight
Nautical Twilight
Astronomical Twilight
Moon
Length of Visible Light
Length of Day
Tomorrow will be .
, % of the Moon is Illuminated

Today's Extremes

State Highs State Lows

Community

WunderPhotos

Upload Photos

1,802,704 photos uploaded!

WunderBlogs® & News

Nearby

Air Quality

  Air Quality AQ Index Pollutant
Not available.

Snow Depth

Station Depth Elevation

Earthquake Activity

City Distance Mag. Time & Date
Minimum magnitude displayed is 2.5.

Coastal Water Temperatures

Place Temperature

Nearby Weather Stations

Winter Weather Advisory
Statement as of 10:39 PM EST on March 04, 2015

... Winter Weather Advisory remains in effect until 7 PM EST
Thursday...

* locations... southern Rhode Island and south coastal
Massachusetts.

* Hazard types... snow.

* Accumulations... 2 to 5 inches of snow.

* Timing... rain will change to snow overnight and continue
through early Thursday afternoon.

* Impacts... slower than normal travel due to slippery roads.

* Visibilities... one quarter to one half mile at times.

Precautionary/preparedness actions...

A Winter Weather Advisory is issued for minor snow accumulations
which can have an affect on travel. Allow extra travel time and
be alert for slippery roads... especially on bridges and
overpasses.




For the latest updates... please visit our webpage at
www.Weather.Gov/Boston

You can follow US on facebook at